createdAt,value
2023-01-01T00:00:43.637Z,37.97
2023-01-01T00:03:11.400Z,35.00
2023-01-01T00:05:39.193Z,33.22
2023-01-01T00:08:06.522Z,33.38
2023-01-01T00:10:34.042Z,37.45
2023-01-01T00:13:01.418Z,38.22
2023-01-01T00:15:29.316Z,33.03
2023-01-01T00:17:57.961Z,27.30
2023-01-01T00:20:28.806Z,32.22
2023-01-01T00:23:00.309Z,34.25
2023-01-01T00:25:27.577Z,34.60
2023-01-01T00:27:55.024Z,25.92
2023-01-01T00:30:25.202Z,22.83
2023-01-01T00:32:55.145Z,26.25
2023-01-01T00:35:24.538Z,28.60
2023-01-01T00:37:51.670Z,26.25
2023-01-01T00:40:19.000Z,21.13
2023-01-01T00:42:45.879Z,22.50
2023-01-01T00:45:18.726Z,16.17
2023-01-01T00:47:48.293Z,19.98
2023-01-01T00:50:15.234Z,16.38
2023-01-01T00:52:42.422Z,22.27
2023-01-01T00:55:10.128Z,20.45
2023-01-01T00:57:37.371Z,23.58
2023-01-01T01:00:05.816Z,21.48
2023-01-01T01:02:33.538Z,18.95
2023-01-01T01:05:01.771Z,25.25
2023-01-01T01:07:29.214Z,24.75
2023-01-01T01:09:56.152Z,20.38
2023-01-01T01:12:23.263Z,21.15
2023-01-01T01:14:50.169Z,17.85
2023-01-01T01:17:17.167Z,21.63
2023-01-01T01:19:44.556Z,19.05
2023-01-01T01:22:11.733Z,18.52
2023-01-01T01:24:38.750Z,14.25
2023-01-01T01:27:05.812Z,16.77
2023-01-01T01:29:32.775Z,15.18
2023-01-01T01:31:59.909Z,16.88
2023-01-01T01:34:28.322Z,14.35
2023-01-01T01:36:57.521Z,14.85
2023-01-01T01:39:24.848Z,17.10
2023-01-01T01:41:51.860Z,11.88
2023-01-01T01:44:49.102Z,9.35
2023-01-01T01:47:43.186Z,9.10
2023-01-01T01:50:16.110Z,9.15
2023-01-01T01:52:58.421Z,8.02
2023-01-01T01:55:27.251Z,8.50
2023-01-01T01:57:54.212Z,5.30
2023-01-01T02:00:21.507Z,10.20
2023-01-01T02:02:57.285Z,12.27
2023-01-01T02:05:25.193Z,5.85
2023-01-01T02:07:53.401Z,7.53
2023-01-01T02:10:20.948Z,10.60
2023-01-01T02:12:48.554Z,7.90
2023-01-01T02:15:17.129Z,10.02
2023-01-01T02:18:10.158Z,6.40
2023-01-01T02:20:46.634Z,7.57
2023-01-01T02:23:43.077Z,6.43
2023-01-01T02:26:38.899Z,6.13
2023-01-01T02:31:48.310Z,8.20
2023-01-01T02:34:16.791Z,7.35
2023-01-01T02:36:51.805Z,9.25
2023-01-01T02:39:22.022Z,8.82
2023-01-01T02:41:51.260Z,8.02
2023-01-01T02:44:19.450Z,5.63
2023-01-01T02:46:46.312Z,8.20
2023-01-01T02:49:13.297Z,4.78
2023-01-01T02:51:52.159Z,5.85
2023-01-01T02:54:24.311Z,8.43
2023-01-01T02:57:13.341Z,6.93
2023-01-01T03:00:17.955Z,4.32
2023-01-01T03:03:03.737Z,7.68
2023-01-01T03:05:59.532Z,10.27
2023-01-01T03:08:34.810Z,8.85
2023-01-01T03:11:10.509Z,10.32
2023-01-01T03:14:02.094Z,5.22
2023-01-01T03:16:38.873Z,6.93
2023-01-01T03:19:36.309Z,7.57
2023-01-01T03:22:12.417Z,5.65
2023-01-01T03:24:53.110Z,10.98
2023-01-01T03:27:27.810Z,7.05
2023-01-01T03:29:56.957Z,9.55
2023-01-01T03:33:03.600Z,5.43
2023-01-01T03:35:53.773Z,5.53
2023-01-01T03:38:57.231Z,9.57
2023-01-01T03:41:29.715Z,8.90
2023-01-01T03:46:42.127Z,5.05
2023-01-01T03:49:10.825Z,9.13
2023-01-01T03:51:55.971Z,7.00
2023-01-01T03:54:34.948Z,7.53
2023-01-01T03:57:12.835Z,7.28
2023-01-01T03:59:50.202Z,8.00
2023-01-01T04:02:20.381Z,3.92
2023-01-01T04:04:50.355Z,5.47
2023-01-01T04:07:17.352Z,8.20
2023-01-01T04:09:49.078Z,3.47
2023-01-01T04:12:16.966Z,4.88
2023-01-01T04:14:43.807Z,3.85
2023-01-01T04:17:11.860Z,3.03
2023-01-01T04:19:38.827Z,10.70
2023-01-01T04:22:05.820Z,6.88
2023-01-01T04:24:32.536Z,4.05
2023-01-01T04:26:59.424Z,5.10
2023-01-01T04:29:26.187Z,3.33
2023-01-01T04:31:53.006Z,5.78
2023-01-01T04:34:19.799Z,6.90
2023-01-01T04:36:46.478Z,5.80
2023-01-01T04:39:13.311Z,6.70
2023-01-01T04:41:40.189Z,4.47
2023-01-01T04:44:07.003Z,7.28
2023-01-01T04:46:34.041Z,5.55
2023-01-01T04:49:00.752Z,5.03
2023-01-01T04:51:27.608Z,5.03
2023-01-01T04:53:54.418Z,6.85
2023-01-01T04:56:22.618Z,8.63
2023-01-01T04:58:50.012Z,6.63
2023-01-01T05:01:27.610Z,8.40
2023-01-01T05:03:55.340Z,7.55
2023-01-01T05:06:23.047Z,4.80
2023-01-01T05:08:50.917Z,5.65
2023-01-01T05:11:20.919Z,8.85
2023-01-01T05:13:49.540Z,5.20
2023-01-01T05:16:18.995Z,7.03
2023-01-01T05:18:46.494Z,8.32
2023-01-01T05:21:18.105Z,9.98
2023-01-01T05:23:45.480Z,10.15
2023-01-01T05:26:16.517Z,10.55
2023-01-01T05:28:43.418Z,9.23
2023-01-01T05:31:13.881Z,17.83
2023-01-01T05:33:41.063Z,9.38
2023-01-01T05:36:09.339Z,13.30
2023-01-01T05:38:36.598Z,10.65
2023-01-01T05:41:11.567Z,8.15
2023-01-01T05:43:38.442Z,8.98
2023-01-01T05:46:07.050Z,8.38
2023-01-01T05:48:36.735Z,15.20
2023-01-01T05:51:11.431Z,14.77
2023-01-01T05:53:39.024Z,7.43
2023-01-01T05:56:06.699Z,10.75
2023-01-01T05:58:34.883Z,13.02
2023-01-01T06:01:10.450Z,10.52
2023-01-01T06:03:37.713Z,11.40
2023-01-01T06:06:06.001Z,10.07
2023-01-01T06:08:32.962Z,5.97
2023-01-01T06:11:01.197Z,12.45
2023-01-01T06:13:28.084Z,10.05
2023-01-01T06:15:59.619Z,9.13
2023-01-01T06:18:29.507Z,11.68
2023-01-01T06:20:56.342Z,11.40
2023-01-01T06:23:23.165Z,9.32
2023-01-01T06:25:49.968Z,16.23
2023-01-01T06:28:16.707Z,11.07
2023-01-01T06:30:44.589Z,18.15
2023-01-01T06:33:11.306Z,15.32
2023-01-01T06:35:38.141Z,12.20
2023-01-01T06:38:04.954Z,15.70
2023-01-01T06:40:31.730Z,12.25
2023-01-01T06:42:58.445Z,10.93
2023-01-01T06:45:25.392Z,13.20
2023-01-01T06:47:52.196Z,13.05
2023-01-01T06:50:18.866Z,12.38
2023-01-01T06:52:47.445Z,6.43
2023-01-01T06:55:14.126Z,17.95
2023-01-01T06:57:40.904Z,14.32
2023-01-01T07:00:08.720Z,10.82
2023-01-01T07:02:35.754Z,13.10
2023-01-01T07:05:02.599Z,11.27
2023-01-01T07:07:34.139Z,10.00
2023-01-01T07:10:02.697Z,16.73
2023-01-01T07:12:29.384Z,9.18
2023-01-01T07:14:56.380Z,10.73
2023-01-01T07:17:23.071Z,10.13
2023-01-01T07:19:50.468Z,14.52
2023-01-01T07:22:17.421Z,15.13
2023-01-01T07:24:44.152Z,13.52
2023-01-01T07:27:10.936Z,12.38
2023-01-01T07:29:37.860Z,13.43
2023-01-01T07:32:04.652Z,6.97
2023-01-01T07:34:31.406Z,15.77
2023-01-01T07:37:00.160Z,13.07
2023-01-01T07:39:27.046Z,13.82
2023-01-01T07:41:53.856Z,14.48
2023-01-01T07:44:20.601Z,12.57
2023-01-01T07:46:47.402Z,21.08
2023-01-01T07:49:14.135Z,9.48
2023-01-01T07:51:40.947Z,13.50
2023-01-01T07:54:07.848Z,12.23
2023-01-01T07:56:36.007Z,10.90
2023-01-01T07:59:02.813Z,9.07
2023-01-01T08:01:29.720Z,12.48
2023-01-01T08:03:56.511Z,15.57
2023-01-01T08:06:23.294Z,11.90
2023-01-01T08:08:50.133Z,14.60
2023-01-01T08:11:17.213Z,14.05
2023-01-01T08:13:44.021Z,14.40
2023-01-01T08:16:10.777Z,14.63
2023-01-01T08:18:37.634Z,11.48
2023-01-01T08:21:04.966Z,11.98
2023-01-01T08:23:31.840Z,10.68
2023-01-01T08:26:02.341Z,11.00
2023-01-01T08:28:30.681Z,11.43
2023-01-01T08:30:57.709Z,13.18
2023-01-01T08:33:25.253Z,7.68
2023-01-01T08:35:54.587Z,14.48
2023-01-01T08:38:21.573Z,11.57
2023-01-01T08:40:48.272Z,12.05
2023-01-01T08:43:15.064Z,8.55
2023-01-01T08:45:41.802Z,6.47
2023-01-01T08:48:08.948Z,11.40
2023-01-01T08:50:35.626Z,12.30
2023-01-01T08:53:02.842Z,14.98
2023-01-01T08:55:29.911Z,7.53
2023-01-01T08:57:56.729Z,16.67
2023-01-01T09:00:23.924Z,7.88
2023-01-01T09:02:50.817Z,9.43
2023-01-01T09:05:17.882Z,10.07
2023-01-01T09:07:44.564Z,9.18
2023-01-01T09:10:11.427Z,9.10
2023-01-01T09:12:38.172Z,12.57
2023-01-01T09:15:05.417Z,7.78
2023-01-01T09:17:32.162Z,7.68
2023-01-01T09:19:58.935Z,9.32
2023-01-01T09:22:25.813Z,6.43
2023-01-01T09:24:52.447Z,8.90
2023-01-01T09:27:19.286Z,16.02
2023-01-01T09:29:46.001Z,11.70
2023-01-01T09:32:12.918Z,13.70
2023-01-01T09:34:39.771Z,11.68
2023-01-01T09:37:06.795Z,6.30
2023-01-01T09:39:33.808Z,13.15
2023-01-01T09:42:25.243Z,11.05
2023-01-01T09:45:16.751Z,10.38
2023-01-01T09:50:19.230Z,8.77
2023-01-01T09:52:49.899Z,13.60
2023-01-01T09:55:26.042Z,9.50
2023-01-01T09:57:53.012Z,9.07
2023-01-01T10:00:20.248Z,8.98
2023-01-01T10:03:16.427Z,8.73
2023-01-01T10:05:45.238Z,6.68
2023-01-01T10:08:42.596Z,9.95
2023-01-01T10:11:31.250Z,10.98
2023-01-01T10:13:59.721Z,7.78
2023-01-01T10:16:33.959Z,10.20
2023-01-01T10:19:07.920Z,11.48
2023-01-01T10:21:42.124Z,6.85
2023-01-01T10:24:57.369Z,10.60
2023-01-01T10:27:33.805Z,7.50
2023-01-01T10:30:04.762Z,10.52
2023-01-01T10:32:34.790Z,8.45
2023-01-01T10:35:04.187Z,8.10
2023-01-01T10:37:34.443Z,9.73
2023-01-01T10:40:09.794Z,6.22
2023-01-01T10:42:36.506Z,5.95
2023-01-01T10:45:05.499Z,4.72
2023-01-01T10:47:32.345Z,10.38
2023-01-01T10:50:07.685Z,10.88
2023-01-01T10:52:42.914Z,8.45
2023-01-01T10:55:29.987Z,7.97
2023-01-01T10:57:56.850Z,7.88
2023-01-01T11:00:27.159Z,5.55
2023-01-01T11:03:12.657Z,7.88
2023-01-01T11:05:39.739Z,10.27
2023-01-01T11:08:18.968Z,12.07
2023-01-01T11:10:51.122Z,5.68
2023-01-01T11:13:19.670Z,8.35
2023-01-01T11:15:46.799Z,12.15
2023-01-01T11:18:16.216Z,11.75
2023-01-01T11:20:43.521Z,11.88
2023-01-01T11:23:21.059Z,15.38
2023-01-01T11:26:09.084Z,5.55
2023-01-01T11:28:36.212Z,21.70
2023-01-01T11:31:06.309Z,8.02
2023-01-01T11:33:37.039Z,10.77
2023-01-01T11:36:04.993Z,6.00
2023-01-01T11:38:31.814Z,6.20
2023-01-01T11:41:07.035Z,19.05
2023-01-01T11:43:39.727Z,9.77
2023-01-01T11:46:09.642Z,8.35
2023-01-01T11:48:36.938Z,10.65
2023-01-01T11:51:07.020Z,12.32
2023-01-01T11:53:41.935Z,12.98
2023-01-01T11:56:16.300Z,9.65
2023-01-01T11:58:56.731Z,14.90
2023-01-01T12:01:39.830Z,13.18
2023-01-01T12:04:14.491Z,9.55
2023-01-01T12:07:07.673Z,12.60
2023-01-01T12:09:45.345Z,7.65
2023-01-01T12:12:31.077Z,11.05
2023-01-01T12:15:04.057Z,9.00
2023-01-01T12:17:39.275Z,9.77
2023-01-01T12:20:09.874Z,11.25
2023-01-01T12:22:37.277Z,11.32
2023-01-01T12:25:05.746Z,7.82
2023-01-01T12:27:41.449Z,12.55
2023-01-01T12:30:22.420Z,10.35
2023-01-01T12:33:20.671Z,7.18
2023-01-01T12:35:54.131Z,7.90
2023-01-01T12:38:25.814Z,11.20
2023-01-01T12:41:02.898Z,14.70
2023-01-01T12:43:40.255Z,11.10
2023-01-01T12:46:14.229Z,10.75
2023-01-01T12:48:47.950Z,13.75
2023-01-01T12:51:52.793Z,9.85
2023-01-01T12:54:54.996Z,15.07
2023-01-01T12:57:29.136Z,9.55
2023-01-01T12:59:58.576Z,9.70
2023-01-01T13:02:29.532Z,17.25
2023-01-01T13:05:27.713Z,13.55
2023-01-01T13:08:00.988Z,11.07
2023-01-01T13:10:31.722Z,9.30
2023-01-01T13:12:59.087Z,12.27
2023-01-01T13:15:44.639Z,9.40
2023-01-01T13:18:15.016Z,9.35
2023-01-01T13:20:45.157Z,10.68
2023-01-01T13:23:38.479Z,13.43
2023-01-01T13:26:17.748Z,14.00
2023-01-01T13:28:44.714Z,12.20
2023-01-01T13:31:11.742Z,13.00
2023-01-01T13:33:39.225Z,12.93
2023-01-01T13:36:12.286Z,18.42
2023-01-01T13:38:49.518Z,17.92
2023-01-01T13:41:25.906Z,13.75
2023-01-01T13:44:20.238Z,15.35
2023-01-01T13:47:03.496Z,23.10
2023-01-01T13:49:30.626Z,16.50
2023-01-01T13:52:07.427Z,18.77
2023-01-01T13:54:35.894Z,10.18
2023-01-01T13:57:15.093Z,18.45
2023-01-01T13:59:52.778Z,13.43
2023-01-01T14:02:30.445Z,11.57
2023-01-01T14:05:00.933Z,11.02
2023-01-01T14:07:51.270Z,16.73
2023-01-01T14:10:25.247Z,9.38
2023-01-01T14:12:53.234Z,9.43
2023-01-01T14:15:56.590Z,10.88
2023-01-01T14:18:33.713Z,11.82
2023-01-01T14:21:01.316Z,11.73
2023-01-01T14:23:34.306Z,15.32
2023-01-01T14:26:04.145Z,12.38
2023-01-01T14:28:32.551Z,13.52
2023-01-01T14:31:07.040Z,10.73
2023-01-01T14:33:37.830Z,27.30
2023-01-01T14:36:13.914Z,10.77
2023-01-01T14:38:46.968Z,37.33
2023-01-01T14:41:32.218Z,51.70
2023-01-01T14:44:27.872Z,39.45
2023-01-01T14:46:54.936Z,114.82
2023-01-01T14:49:36.203Z,114.28
2023-01-01T14:52:21.643Z,115.65
2023-01-01T14:54:48.731Z,58.85
2023-01-01T14:57:19.504Z,45.92
2023-01-01T14:59:49.123Z,19.52
2023-01-01T15:02:21.578Z,19.25
2023-01-01T15:04:49.425Z,29.08
2023-01-01T15:07:27.959Z,25.70
2023-01-01T15:09:57.641Z,12.88
2023-01-01T15:12:24.794Z,15.32
2023-01-01T15:14:53.463Z,11.95
2023-01-01T15:17:22.283Z,9.10
2023-01-01T15:20:21.627Z,8.65
2023-01-01T15:22:49.421Z,11.45
2023-01-01T15:25:18.773Z,14.30
2023-01-01T15:28:04.398Z,12.00
2023-01-01T15:30:33.809Z,10.45
2023-01-01T15:33:15.408Z,13.48
2023-01-01T15:35:46.937Z,11.77
2023-01-01T15:38:22.993Z,11.63
2023-01-01T15:40:53.583Z,13.35
2023-01-01T15:43:25.913Z,13.25
2023-01-01T15:45:58.637Z,9.38
2023-01-01T15:48:32.839Z,11.23
2023-01-01T15:51:04.204Z,11.38
2023-01-01T15:53:48.437Z,10.13
2023-01-01T15:56:15.467Z,9.13
2023-01-01T15:58:49.137Z,17.10
2023-01-01T16:01:22.271Z,11.02
2023-01-01T16:03:52.473Z,12.05
2023-01-01T16:06:21.073Z,9.75
2023-01-01T16:08:48.165Z,11.13
2023-01-01T16:11:15.256Z,12.57
2023-01-01T16:13:42.608Z,12.02
2023-01-01T16:16:28.884Z,12.93
2023-01-01T16:18:56.837Z,9.00
2023-01-01T16:21:33.225Z,15.77
2023-01-01T16:24:00.306Z,13.20
2023-01-01T16:26:27.230Z,9.93
2023-01-01T16:28:54.244Z,12.50
2023-01-01T16:31:28.862Z,8.63
2023-01-01T16:33:57.604Z,14.48
2023-01-01T16:36:27.548Z,9.80
2023-01-01T16:38:54.897Z,13.75
2023-01-01T16:41:22.401Z,12.05
2023-01-01T16:43:50.137Z,12.43
2023-01-01T16:46:17.681Z,11.13
2023-01-01T16:48:45.583Z,6.97
2023-01-01T16:51:25.496Z,15.98
2023-01-01T16:53:52.457Z,9.95
2023-01-01T16:56:19.496Z,16.98
2023-01-01T16:58:49.412Z,12.18
2023-01-01T17:01:18.779Z,14.43
2023-01-01T17:03:45.999Z,12.60
2023-01-01T17:06:14.202Z,10.88
2023-01-01T17:08:41.642Z,19.42
2023-01-01T17:11:17.057Z,13.15
2023-01-01T17:13:46.299Z,15.00
2023-01-01T17:16:21.378Z,21.00
2023-01-01T17:21:40.757Z,17.38
2023-01-01T17:24:08.259Z,15.07
2023-01-01T17:26:35.163Z,20.23
2023-01-01T17:29:03.517Z,13.77
2023-01-01T17:31:31.345Z,10.63
2023-01-01T17:33:59.723Z,19.45
2023-01-01T17:36:29.862Z,15.52
2023-01-01T17:38:57.607Z,16.45
2023-01-01T17:41:24.618Z,14.38
2023-01-01T17:43:52.956Z,15.18
2023-01-01T17:46:33.314Z,16.17
2023-01-01T17:49:01.897Z,13.93
2023-01-01T17:51:29.552Z,10.02
2023-01-01T17:53:57.725Z,7.70
2023-01-01T17:56:25.334Z,15.27
2023-01-01T17:58:53.671Z,10.93
2023-01-01T18:01:23.977Z,10.95
2023-01-01T18:03:53.221Z,13.07
2023-01-01T18:06:20.623Z,13.90
2023-01-01T18:08:47.974Z,6.53
2023-01-01T18:11:15.313Z,8.52
2023-01-01T18:13:42.486Z,8.45
2023-01-01T18:16:10.153Z,7.22
2023-01-01T18:18:41.460Z,9.85
2023-01-01T18:21:12.375Z,10.63
2023-01-01T18:23:40.169Z,9.93
2023-01-01T18:26:10.093Z,8.77
2023-01-01T18:28:37.679Z,14.68
2023-01-01T18:31:16.247Z,14.02
2023-01-01T18:33:43.931Z,15.00
2023-01-01T18:36:13.954Z,11.98
2023-01-01T18:38:42.993Z,11.18
2023-01-01T18:41:54.597Z,36.65
2023-01-01T18:44:23.801Z,16.05
2023-01-01T18:46:56.359Z,86.80
2023-01-01T18:49:25.398Z,15.70
2023-01-01T18:51:57.502Z,34.92
2023-01-01T18:54:25.464Z,16.63
2023-01-01T18:57:01.662Z,54.45
2023-01-01T18:59:28.686Z,13.70
2023-01-01T19:01:55.824Z,17.25
2023-01-01T19:04:22.979Z,28.05
2023-01-01T19:06:50.943Z,14.13
2023-01-01T19:09:21.804Z,20.55
2023-01-01T19:11:53.847Z,15.85
2023-01-01T19:14:23.788Z,18.08
2023-01-01T19:16:53.191Z,15.35
2023-01-01T19:19:26.447Z,19.50
2023-01-01T19:22:01.253Z,20.23
2023-01-01T19:24:30.973Z,18.08
2023-01-01T19:27:17.915Z,14.45
2023-01-01T19:29:46.592Z,24.52
2023-01-01T19:32:13.761Z,13.75
2023-01-01T19:34:41.137Z,20.25
2023-01-01T19:37:12.810Z,14.15
2023-01-01T19:39:39.986Z,18.38
2023-01-01T19:42:07.391Z,13.60
2023-01-01T19:44:35.939Z,19.40
2023-01-01T19:47:05.150Z,9.07
2023-01-01T19:49:32.604Z,17.67
2023-01-01T19:51:59.445Z,14.23
2023-01-01T19:54:26.690Z,15.50
2023-01-01T19:56:53.776Z,13.32
2023-01-01T19:59:20.959Z,34.67
2023-01-01T20:02:09.658Z,20.40
2023-01-01T20:04:35.511Z,21.30
2023-01-01T20:07:02.993Z,17.65
2023-01-01T20:09:30.506Z,18.33
2023-01-01T20:11:57.881Z,18.63
2023-01-01T20:14:24.984Z,16.00
2023-01-01T20:16:53.543Z,20.70
2023-01-01T20:19:20.589Z,15.57
2023-01-01T20:22:06.344Z,14.50
2023-01-01T20:24:33.484Z,19.75
2023-01-01T20:27:01.862Z,19.17
2023-01-01T20:29:29.114Z,18.48
2023-01-01T20:31:56.298Z,16.63
2023-01-01T20:34:23.698Z,15.93
2023-01-01T20:37:09.975Z,13.07
2023-01-01T20:39:38.915Z,10.98
2023-01-01T20:42:06.479Z,9.85
2023-01-01T20:44:33.831Z,12.45
2023-01-01T20:47:00.925Z,11.50
2023-01-01T20:49:27.964Z,14.60
2023-01-01T20:51:55.192Z,14.82
2023-01-01T20:54:23.719Z,14.93
2023-01-01T20:56:51.397Z,18.27
2023-01-01T20:59:34.963Z,34.75
2023-01-01T21:02:05.115Z,16.90
2023-01-01T21:04:33.184Z,12.70
2023-01-01T21:07:00.701Z,13.75
2023-01-01T21:09:28.241Z,16.05
2023-01-01T21:11:55.827Z,11.88
2023-01-01T21:14:24.558Z,13.23
2023-01-01T21:16:52.317Z,13.60
2023-01-01T21:19:26.078Z,11.82
2023-01-01T21:21:56.230Z,9.55
2023-01-01T21:24:23.817Z,13.15
2023-01-01T21:26:56.786Z,12.40
2023-01-01T21:29:25.104Z,11.98
2023-01-01T21:31:56.852Z,11.30
2023-01-01T21:34:35.723Z,10.48
2023-01-01T21:39:34.974Z,9.75
2023-01-01T21:42:14.520Z,12.52
2023-01-01T21:44:41.713Z,16.65
2023-01-01T21:47:20.038Z,17.30
2023-01-01T21:49:47.232Z,14.45
2023-01-01T21:52:20.083Z,12.23
2023-01-01T21:54:50.262Z,13.48
2023-01-01T21:57:18.157Z,12.77
2023-01-01T21:59:48.987Z,13.95
2023-01-01T22:02:35.201Z,17.45
2023-01-01T22:05:18.182Z,17.33
2023-01-01T22:07:57.602Z,14.73
2023-01-01T22:10:37.496Z,16.15
2023-01-01T22:13:14.064Z,16.50
2023-01-01T22:15:41.853Z,16.30
2023-01-01T22:18:12.934Z,13.13
2023-01-01T22:20:42.699Z,16.17
2023-01-01T22:23:28.535Z,17.02
2023-01-01T22:25:55.595Z,20.20
2023-01-01T22:28:25.697Z,14.90
2023-01-01T22:30:56.065Z,16.95
2023-01-01T22:33:28.344Z,18.92
2023-01-01T22:35:56.524Z,16.98
2023-01-01T22:38:29.674Z,16.77
2023-01-01T22:40:57.573Z,17.52
2023-01-01T22:43:32.179Z,14.77
2023-01-01T22:46:05.014Z,14.77
2023-01-01T22:48:35.482Z,16.60
2023-01-01T22:51:07.534Z,16.20
2023-01-01T22:53:34.649Z,18.27
2023-01-01T22:56:02.035Z,19.63
2023-01-01T22:58:29.041Z,14.88
2023-01-01T23:00:56.016Z,18.58
2023-01-01T23:03:23.085Z,18.98
2023-01-01T23:05:50.125Z,22.08
2023-01-01T23:08:17.256Z,19.25
2023-01-01T23:10:44.357Z,18.35
2023-01-01T23:13:30.115Z,21.80
2023-01-01T23:16:03.274Z,14.98
2023-01-01T23:18:33.091Z,20.15
2023-01-01T23:21:01.404Z,18.73
2023-01-01T23:23:30.135Z,17.55
2023-01-01T23:25:58.381Z,23.92
2023-01-01T23:28:27.078Z,19.65
2023-01-01T23:30:54.615Z,15.82
2023-01-01T23:33:22.126Z,17.30
2023-01-01T23:35:49.589Z,16.25
2023-01-01T23:38:16.793Z,18.08
2023-01-01T23:40:43.915Z,19.08
2023-01-01T23:43:10.814Z,17.75
2023-01-01T23:45:38.224Z,15.80
2023-01-01T23:48:05.639Z,16.60
2023-01-01T23:50:34.809Z,16.05
2023-01-01T23:53:02.133Z,19.98
2023-01-01T23:55:29.202Z,16.88
2023-01-01T23:57:56.145Z,14.70
